createdAt,value
2018-11-07T00:07:22.472Z,58.20
2018-11-07T00:34:20.165Z,58.20
2018-11-07T00:47:27.318Z,58.10
2018-11-07T01:00:34.452Z,58.10
2018-11-07T01:13:41.617Z,58.70
2018-11-07T01:26:48.807Z,58.00
2018-11-07T01:39:55.943Z,58.00
2018-11-07T01:53:03.248Z,58.00
2018-11-07T02:06:10.439Z,57.90
2018-11-07T02:19:17.653Z,57.90
2018-11-07T02:32:24.831Z,57.90
2018-11-07T02:45:32.030Z,57.80
2018-11-07T02:58:39.180Z,57.70
2018-11-07T03:11:46.572Z,57.70
2018-11-07T03:24:53.687Z,57.70
2018-11-07T03:38:00.852Z,57.60
2018-11-07T03:51:08.194Z,57.60
2018-11-07T04:04:15.357Z,57.60
2018-11-07T04:17:22.488Z,57.60
2018-11-07T04:30:29.778Z,57.60
2018-11-07T04:43:36.924Z,57.50
2018-11-07T04:56:44.114Z,57.40
2018-11-07T05:09:51.290Z,57.40
2018-11-07T05:22:58.465Z,57.30
2018-11-07T05:36:05.787Z,57.30
2018-11-07T05:49:13.042Z,57.30
2018-11-07T06:02:20.150Z,57.30
2018-11-07T06:15:27.306Z,57.30
2018-11-07T06:28:34.446Z,57.30
2018-11-07T06:41:41.621Z,57.20
2018-11-07T06:54:48.766Z,57.50
2018-11-07T07:07:55.905Z,56.40
2018-11-07T07:21:03.046Z,56.10
2018-11-07T07:34:10.521Z,55.50
2018-11-07T07:47:17.793Z,55.50
2018-11-07T08:00:25.077Z,55.90
2018-11-07T08:13:32.325Z,56.60
2018-11-07T08:39:42.972Z,57.30
2018-11-07T08:52:50.164Z,56.00
2018-11-07T09:32:03.015Z,54.90
2018-11-07T09:45:10.205Z,54.50
2018-11-07T10:11:20.191Z,54.20
2018-11-07T10:24:27.484Z,54.00
2018-11-07T10:50:37.494Z,53.70
2018-11-07T11:03:44.825Z,53.70
2018-11-07T11:16:52.034Z,53.80
2018-11-07T11:29:59.145Z,53.90
2018-11-07T11:43:06.295Z,54.00
2018-11-07T11:56:13.454Z,54.00
2018-11-07T12:09:20.753Z,53.90
2018-11-07T12:22:27.904Z,54.30
2018-11-07T12:35:35.046Z,54.70
2018-11-07T13:01:45.102Z,55.00
2018-11-07T13:14:52.263Z,55.00
2018-11-07T13:27:59.413Z,55.80
2018-11-07T13:41:06.649Z,55.20
2018-11-07T13:54:13.730Z,55.20
2018-11-07T14:07:20.857Z,56.30
2018-11-07T14:20:28.037Z,56.10
2018-11-07T14:33:35.144Z,55.90
2018-11-07T14:46:42.352Z,56.10
2018-11-07T14:59:49.481Z,55.50
2018-11-07T15:12:56.633Z,55.40
2018-11-07T15:26:03.782Z,56.20
2018-11-07T15:39:10.879Z,57.30
2018-11-07T15:52:18.257Z,57.90
2018-11-07T16:05:25.381Z,58.50
2018-11-07T16:18:32.546Z,59.20
2018-11-07T16:31:39.631Z,59.70
2018-11-07T16:44:46.782Z,60.10
2018-11-07T17:10:56.456Z,60.70
2018-11-07T17:24:03.624Z,60.80
2018-11-07T17:37:10.715Z,60.80
2018-11-07T17:50:17.890Z,59.40
2018-11-07T18:03:25.094Z,58.40
2018-11-07T18:16:32.236Z,60.20
2018-11-07T18:29:39.641Z,60.50
2018-11-07T18:42:46.897Z,59.80
2018-11-07T18:55:54.108Z,59.50
2018-11-07T19:09:01.314Z,59.50
2018-11-07T19:22:08.662Z,59.40
2018-11-07T19:35:15.791Z,59.40
2018-11-07T19:48:23.161Z,59.30
2018-11-07T20:14:33.232Z,58.80
2018-11-07T20:27:40.721Z,58.80
2018-11-07T20:40:48.089Z,58.90
2018-11-07T20:53:55.462Z,59.00
2018-11-07T21:07:02.715Z,59.10
2018-11-07T21:20:09.910Z,59.20
2018-11-07T21:33:17.302Z,59.50
2018-11-07T21:46:24.434Z,59.50
2018-11-07T21:59:31.613Z,59.30
2018-11-07T22:25:41.467Z,59.00
2018-11-07T22:38:48.721Z,59.00
2018-11-07T22:51:55.887Z,58.90
2018-11-07T23:05:03.264Z,58.80
2018-11-07T23:18:10.591Z,58.70
2018-11-07T23:31:17.680Z,58.60
2018-11-07T23:44:24.812Z,58.60
